sensor_id;sensor_type;location;lat;lon;timestamp;P1;durP1;ratioP1;P2;durP2;ratioP2
55931;SDS011;41837;55.700;37.984;2022-12-18T00:01:16;20.45;;;10.65;;
55931;SDS011;41837;55.700;37.984;2022-12-18T00:03:45;16.17;;;7.03;;
55931;SDS011;41837;55.700;37.984;2022-12-18T00:06:13;17.10;;;7.70;;
55931;SDS011;41837;55.700;37.984;2022-12-18T00:08:40;15.45;;;7.60;;
55931;SDS011;41837;55.700;37.984;2022-12-18T00:11:08;15.20;;;6.55;;
55931;SDS011;41837;55.700;37.984;2022-12-18T00:13:39;14.02;;;6.03;;
55931;SDS011;41837;55.700;37.984;2022-12-18T00:16:06;17.10;;;7.78;;
55931;SDS011;41837;55.700;37.984;2022-12-18T00:18:35;16.17;;;6.97;;
55931;SDS011;41837;55.700;37.984;2022-12-18T00:21:02;17.48;;;8.43;;
55931;SDS011;41837;55.700;37.984;2022-12-18T00:23:32;40.25;;;8.25;;
55931;SDS011;41837;55.700;37.984;2022-12-18T00:25:59;14.02;;;7.50;;
55931;SDS011;41837;55.700;37.984;2022-12-18T00:28:30;15.15;;;6.18;;
55931;SDS011;41837;55.700;37.984;2022-12-18T00:31:06;12.88;;;6.75;;
55931;SDS011;41837;55.700;37.984;2022-12-18T00:33:35;11.23;;;5.70;;
55931;SDS011;41837;55.700;37.984;2022-12-18T00:36:02;16.27;;;7.80;;
55931;SDS011;41837;55.700;37.984;2022-12-18T00:38:31;13.88;;;6.40;;
55931;SDS011;41837;55.700;37.984;2022-12-18T00:40:57;14.27;;;6.97;;
55931;SDS011;41837;55.700;37.984;2022-12-18T00:43:24;16.77;;;7.50;;
55931;SDS011;41837;55.700;37.984;2022-12-18T00:45:52;12.70;;;6.43;;
55931;SDS011;41837;55.700;37.984;2022-12-18T00:48:19;14.10;;;6.57;;
55931;SDS011;41837;55.700;37.984;2022-12-18T00:50:46;9.80;;;4.75;;
55931;SDS011;41837;55.700;37.984;2022-12-18T00:53:14;17.08;;;8.25;;
55931;SDS011;41837;55.700;37.984;2022-12-18T00:55:40;13.23;;;6.60;;
55931;SDS011;41837;55.700;37.984;2022-12-18T00:58:08;11.63;;;6.40;;
55931;SDS011;41837;55.700;37.984;2022-12-18T01:00:36;13.27;;;6.40;;
55931;SDS011;41837;55.700;37.984;2022-12-18T01:03:03;16.83;;;8.20;;
55931;SDS011;41837;55.700;37.984;2022-12-18T01:05:31;12.52;;;5.95;;
55931;SDS011;41837;55.700;37.984;2022-12-18T01:07:57;10.93;;;6.32;;
55931;SDS011;41837;55.700;37.984;2022-12-18T01:10:25;16.50;;;9.02;;
55931;SDS011;41837;55.700;37.984;2022-12-18T01:12:51;12.23;;;6.28;;
55931;SDS011;41837;55.700;37.984;2022-12-18T01:15:18;13.32;;;7.25;;
55931;SDS011;41837;55.700;37.984;2022-12-18T01:17:44;22.42;;;9.95;;
55931;SDS011;41837;55.700;37.984;2022-12-18T01:20:11;13.27;;;6.97;;
55931;SDS011;41837;55.700;37.984;2022-12-18T01:22:38;19.33;;;10.38;;
55931;SDS011;41837;55.700;37.984;2022-12-18T01:25:06;22.23;;;13.18;;
55931;SDS011;41837;55.700;37.984;2022-12-18T01:27:33;20.05;;;11.13;;
55931;SDS011;41837;55.700;37.984;2022-12-18T01:29:59;15.70;;;8.57;;
55931;SDS011;41837;55.700;37.984;2022-12-18T01:32:26;22.75;;;12.75;;
55931;SDS011;41837;55.700;37.984;2022-12-18T01:34:54;32.20;;;19.25;;
55931;SDS011;41837;55.700;37.984;2022-12-18T01:37:21;23.33;;;13.30;;
55931;SDS011;41837;55.700;37.984;2022-12-18T01:39:48;23.13;;;14.30;;
55931;SDS011;41837;55.700;37.984;2022-12-18T01:42:16;25.35;;;16.05;;
55931;SDS011;41837;55.700;37.984;2022-12-18T01:47:26;19.17;;;12.07;;
55931;SDS011;41837;55.700;37.984;2022-12-18T01:49:55;20.08;;;11.35;;
55931;SDS011;41837;55.700;37.984;2022-12-18T01:52:22;18.88;;;10.63;;
55931;SDS011;41837;55.700;37.984;2022-12-18T01:54:53;27.38;;;17.88;;
55931;SDS011;41837;55.700;37.984;2022-12-18T01:57:21;22.17;;;13.25;;
55931;SDS011;41837;55.700;37.984;2022-12-18T01:59:49;19.88;;;11.65;;
55931;SDS011;41837;55.700;37.984;2022-12-18T02:02:20;19.02;;;11.48;;
55931;SDS011;41837;55.700;37.984;2022-12-18T02:04:47;29.05;;;16.67;;
55931;SDS011;41837;55.700;37.984;2022-12-18T02:12:42;19.65;;;12.05;;
55931;SDS011;41837;55.700;37.984;2022-12-18T02:15:27;20.33;;;13.35;;
55931;SDS011;41837;55.700;37.984;2022-12-18T02:18:28;13.02;;;7.03;;
55931;SDS011;41837;55.700;37.984;2022-12-18T02:21:05;15.25;;;7.68;;
55931;SDS011;41837;55.700;37.984;2022-12-18T02:23:54;10.40;;;6.35;;
55931;SDS011;41837;55.700;37.984;2022-12-18T02:29:29;11.55;;;6.05;;
55931;SDS011;41837;55.700;37.984;2022-12-18T02:32:02;13.43;;;7.28;;
55931;SDS011;41837;55.700;37.984;2022-12-18T02:34:33;11.93;;;6.30;;
55931;SDS011;41837;55.700;37.984;2022-12-18T02:37:04;14.30;;;8.20;;
55931;SDS011;41837;55.700;37.984;2022-12-18T02:39:36;12.00;;;5.68;;
55931;SDS011;41837;55.700;37.984;2022-12-18T02:42:06;9.25;;;4.90;;
55931;SDS011;41837;55.700;37.984;2022-12-18T02:44:41;13.80;;;5.80;;
55931;SDS011;41837;55.700;37.984;2022-12-18T02:47:20;13.60;;;6.07;;
55931;SDS011;41837;55.700;37.984;2022-12-18T02:49:53;11.32;;;4.85;;
55931;SDS011;41837;55.700;37.984;2022-12-18T02:52:38;13.73;;;6.43;;
55931;SDS011;41837;55.700;37.984;2022-12-18T03:00:58;11.70;;;6.32;;
55931;SDS011;41837;55.700;37.984;2022-12-18T03:03:46;14.15;;;6.90;;
55931;SDS011;41837;55.700;37.984;2022-12-18T03:06:35;9.25;;;5.03;;
55931;SDS011;41837;55.700;37.984;2022-12-18T03:09:09;11.95;;;6.65;;
55931;SDS011;41837;55.700;37.984;2022-12-18T03:11:52;9.23;;;4.43;;
55931;SDS011;41837;55.700;37.984;2022-12-18T03:14:43;11.43;;;5.75;;
55931;SDS011;41837;55.700;37.984;2022-12-18T03:17:16;16.42;;;5.20;;
55931;SDS011;41837;55.700;37.984;2022-12-18T03:19:44;11.27;;;5.45;;
55931;SDS011;41837;55.700;37.984;2022-12-18T03:22:14;8.15;;;4.80;;
55931;SDS011;41837;55.700;37.984;2022-12-18T03:24:49;13.43;;;5.78;;
55931;SDS011;41837;55.700;37.984;2022-12-18T03:27:18;14.32;;;5.30;;
55931;SDS011;41837;55.700;37.984;2022-12-18T03:30:23;8.23;;;4.53;;
55931;SDS011;41837;55.700;37.984;2022-12-18T03:32:56;13.02;;;5.88;;
55931;SDS011;41837;55.700;37.984;2022-12-18T03:35:29;13.80;;;6.43;;
55931;SDS011;41837;55.700;37.984;2022-12-18T03:37:59;11.13;;;4.93;;
55931;SDS011;41837;55.700;37.984;2022-12-18T03:40:29;11.82;;;6.20;;
55931;SDS011;41837;55.700;37.984;2022-12-18T03:43:10;13.90;;;5.97;;
55931;SDS011;41837;55.700;37.984;2022-12-18T03:45:49;12.73;;;6.20;;
55931;SDS011;41837;55.700;37.984;2022-12-18T03:48:25;10.53;;;4.67;;
55931;SDS011;41837;55.700;37.984;2022-12-18T03:51:02;13.27;;;6.97;;
55931;SDS011;41837;55.700;37.984;2022-12-18T03:56:20;11.77;;;5.63;;
55931;SDS011;41837;55.700;37.984;2022-12-18T03:58:52;9.90;;;5.53;;
55931;SDS011;41837;55.700;37.984;2022-12-18T04:01:25;15.90;;;7.00;;
55931;SDS011;41837;55.700;37.984;2022-12-18T04:03:58;16.60;;;7.43;;
55931;SDS011;41837;55.700;37.984;2022-12-18T04:06:28;16.77;;;7.32;;
55931;SDS011;41837;55.700;37.984;2022-12-18T04:08:57;14.63;;;6.10;;
55931;SDS011;41837;55.700;37.984;2022-12-18T04:11:25;17.02;;;6.97;;
55931;SDS011;41837;55.700;37.984;2022-12-18T04:13:55;16.63;;;8.10;;
55931;SDS011;41837;55.700;37.984;2022-12-18T04:16:26;17.05;;;6.65;;
55931;SDS011;41837;55.700;37.984;2022-12-18T04:18:56;14.27;;;6.22;;
55931;SDS011;41837;55.700;37.984;2022-12-18T04:21:24;13.40;;;6.40;;
55931;SDS011;41837;55.700;37.984;2022-12-18T04:23:51;10.60;;;5.82;;
55931;SDS011;41837;55.700;37.984;2022-12-18T04:26:20;15.70;;;7.53;;
55931;SDS011;41837;55.700;37.984;2022-12-18T04:29:10;12.65;;;7.20;;
55931;SDS011;41837;55.700;37.984;2022-12-18T04:31:37;11.93;;;6.55;;
55931;SDS011;41837;55.700;37.984;2022-12-18T04:34:03;11.52;;;5.50;;
55931;SDS011;41837;55.700;37.984;2022-12-18T04:36:37;8.35;;;4.35;;
55931;SDS011;41837;55.700;37.984;2022-12-18T04:39:03;12.50;;;5.40;;
55931;SDS011;41837;55.700;37.984;2022-12-18T04:41:30;10.02;;;4.78;;
55931;SDS011;41837;55.700;37.984;2022-12-18T04:43:56;10.25;;;5.63;;
55931;SDS011;41837;55.700;37.984;2022-12-18T04:46:23;11.23;;;5.35;;
55931;SDS011;41837;55.700;37.984;2022-12-18T04:48:49;11.82;;;5.85;;
55931;SDS011;41837;55.700;37.984;2022-12-18T04:51:15;10.38;;;5.30;;
55931;SDS011;41837;55.700;37.984;2022-12-18T04:53:41;10.07;;;5.50;;
55931;SDS011;41837;55.700;37.984;2022-12-18T04:56:12;12.88;;;6.72;;
55931;SDS011;41837;55.700;37.984;2022-12-18T04:58:40;12.35;;;5.78;;
55931;SDS011;41837;55.700;37.984;2022-12-18T05:01:07;12.10;;;6.13;;
55931;SDS011;41837;55.700;37.984;2022-12-18T05:03:34;10.20;;;5.20;;
55931;SDS011;41837;55.700;37.984;2022-12-18T05:06:01;10.70;;;5.13;;
55931;SDS011;41837;55.700;37.984;2022-12-18T05:08:29;12.73;;;6.05;;
55931;SDS011;41837;55.700;37.984;2022-12-18T05:11:06;13.32;;;6.68;;
55931;SDS011;41837;55.700;37.984;2022-12-18T05:13:34;9.20;;;5.22;;
55931;SDS011;41837;55.700;37.984;2022-12-18T05:16:01;9.82;;;5.35;;
55931;SDS011;41837;55.700;37.984;2022-12-18T05:18:27;16.15;;;6.97;;
55931;SDS011;41837;55.700;37.984;2022-12-18T05:20:54;11.10;;;5.72;;
55931;SDS011;41837;55.700;37.984;2022-12-18T05:23:21;14.40;;;7.10;;
55931;SDS011;41837;55.700;37.984;2022-12-18T05:25:58;11.25;;;5.32;;
55931;SDS011;41837;55.700;37.984;2022-12-18T05:28:26;15.30;;;7.53;;
55931;SDS011;41837;55.700;37.984;2022-12-18T05:31:00;13.40;;;6.45;;
55931;SDS011;41837;55.700;37.984;2022-12-18T05:33:29;12.90;;;5.78;;
55931;SDS011;41837;55.700;37.984;2022-12-18T05:35:59;9.55;;;4.82;;
55931;SDS011;41837;55.700;37.984;2022-12-18T05:38:26;8.77;;;4.57;;
55931;SDS011;41837;55.700;37.984;2022-12-18T05:40:54;10.48;;;4.55;;
55931;SDS011;41837;55.700;37.984;2022-12-18T05:43:21;9.48;;;5.07;;
55931;SDS011;41837;55.700;37.984;2022-12-18T05:45:49;10.25;;;4.63;;
55931;SDS011;41837;55.700;37.984;2022-12-18T05:48:16;10.27;;;4.22;;
55931;SDS011;41837;55.700;37.984;2022-12-18T05:50:44;9.45;;;4.78;;
55931;SDS011;41837;55.700;37.984;2022-12-18T05:53:12;10.35;;;5.35;;
55931;SDS011;41837;55.700;37.984;2022-12-18T05:55:41;10.02;;;5.13;;
55931;SDS011;41837;55.700;37.984;2022-12-18T05:58:08;13.30;;;6.07;;
55931;SDS011;41837;55.700;37.984;2022-12-18T06:00:37;11.45;;;5.93;;
55931;SDS011;41837;55.700;37.984;2022-12-18T06:03:08;12.32;;;6.25;;
55931;SDS011;41837;55.700;37.984;2022-12-18T06:05:40;11.93;;;4.90;;
55931;SDS011;41837;55.700;37.984;2022-12-18T06:08:09;11.88;;;5.18;;
55931;SDS011;41837;55.700;37.984;2022-12-18T06:10:36;12.32;;;5.68;;
55931;SDS011;41837;55.700;37.984;2022-12-18T06:13:03;13.30;;;5.85;;
55931;SDS011;41837;55.700;37.984;2022-12-18T06:15:29;12.27;;;6.38;;
55931;SDS011;41837;55.700;37.984;2022-12-18T06:17:56;11.15;;;5.88;;
55931;SDS011;41837;55.700;37.984;2022-12-18T06:20:23;12.60;;;6.47;;
55931;SDS011;41837;55.700;37.984;2022-12-18T06:22:49;11.85;;;6.20;;
55931;SDS011;41837;55.700;37.984;2022-12-18T06:25:15;14.00;;;6.90;;
55931;SDS011;41837;55.700;37.984;2022-12-18T06:27:42;17.30;;;7.80;;
55931;SDS011;41837;55.700;37.984;2022-12-18T06:30:09;12.05;;;5.75;;
55931;SDS011;41837;55.700;37.984;2022-12-18T06:32:35;11.27;;;5.85;;
55931;SDS011;41837;55.700;37.984;2022-12-18T06:35:02;11.50;;;6.38;;
55931;SDS011;41837;55.700;37.984;2022-12-18T06:37:30;12.80;;;5.80;;
55931;SDS011;41837;55.700;37.984;2022-12-18T06:39:57;9.63;;;4.88;;
55931;SDS011;41837;55.700;37.984;2022-12-18T06:42:23;11.93;;;6.78;;
55931;SDS011;41837;55.700;37.984;2022-12-18T06:44:50;12.68;;;6.38;;
55931;SDS011;41837;55.700;37.984;2022-12-18T06:47:17;10.43;;;5.13;;
55931;SDS011;41837;55.700;37.984;2022-12-18T06:49:43;13.55;;;7.40;;
55931;SDS011;41837;55.700;37.984;2022-12-18T06:52:10;8.02;;;4.45;;
55931;SDS011;41837;55.700;37.984;2022-12-18T06:54:36;9.45;;;4.90;;
55931;SDS011;41837;55.700;37.984;2022-12-18T06:57:03;10.27;;;4.85;;
55931;SDS011;41837;55.700;37.984;2022-12-18T06:59:29;11.48;;;6.20;;
55931;SDS011;41837;55.700;37.984;2022-12-18T07:01:56;11.40;;;6.13;;
55931;SDS011;41837;55.700;37.984;2022-12-18T07:04:26;12.30;;;6.38;;
55931;SDS011;41837;55.700;37.984;2022-12-18T07:06:54;14.25;;;5.90;;
55931;SDS011;41837;55.700;37.984;2022-12-18T07:09:20;12.15;;;7.00;;
55931;SDS011;41837;55.700;37.984;2022-12-18T07:11:46;10.95;;;5.93;;
55931;SDS011;41837;55.700;37.984;2022-12-18T07:14:12;11.63;;;6.18;;
55931;SDS011;41837;55.700;37.984;2022-12-18T07:16:37;11.57;;;6.90;;
55931;SDS011;41837;55.700;37.984;2022-12-18T07:19:04;13.10;;;6.00;;
55931;SDS011;41837;55.700;37.984;2022-12-18T07:21:30;14.65;;;6.22;;
55931;SDS011;41837;55.700;37.984;2022-12-18T07:23:57;15.75;;;7.78;;
55931;SDS011;41837;55.700;37.984;2022-12-18T07:26:23;12.55;;;6.85;;
55931;SDS011;41837;55.700;37.984;2022-12-18T07:28:50;11.02;;;5.43;;
55931;SDS011;41837;55.700;37.984;2022-12-18T07:31:20;11.38;;;5.18;;
55931;SDS011;41837;55.700;37.984;2022-12-18T07:33:47;11.10;;;5.65;;
55931;SDS011;41837;55.700;37.984;2022-12-18T07:36:14;12.98;;;6.35;;
55931;SDS011;41837;55.700;37.984;2022-12-18T07:38:41;14.98;;;7.68;;
55931;SDS011;41837;55.700;37.984;2022-12-18T07:41:08;12.63;;;6.65;;
55931;SDS011;41837;55.700;37.984;2022-12-18T07:43:39;14.75;;;7.03;;
55931;SDS011;41837;55.700;37.984;2022-12-18T07:46:07;8.38;;;5.22;;
55931;SDS011;41837;55.700;37.984;2022-12-18T07:48:34;13.93;;;6.70;;
55931;SDS011;41837;55.700;37.984;2022-12-18T07:51:01;11.40;;;5.00;;
55931;SDS011;41837;55.700;37.984;2022-12-18T07:53:30;13.38;;;7.10;;
55931;SDS011;41837;55.700;37.984;2022-12-18T07:55:57;11.82;;;6.43;;
55931;SDS011;41837;55.700;37.984;2022-12-18T07:58:34;14.70;;;6.47;;
55931;SDS011;41837;55.700;37.984;2022-12-18T08:01:02;11.25;;;5.70;;
55931;SDS011;41837;55.700;37.984;2022-12-18T08:03:35;10.57;;;5.22;;
55931;SDS011;41837;55.700;37.984;2022-12-18T08:06:03;13.15;;;6.22;;
55931;SDS011;41837;55.700;37.984;2022-12-18T08:08:30;12.45;;;6.07;;
55931;SDS011;41837;55.700;37.984;2022-12-18T08:10:57;10.65;;;5.63;;
55931;SDS011;41837;55.700;37.984;2022-12-18T08:13:23;8.77;;;4.32;;
55931;SDS011;41837;55.700;37.984;2022-12-18T08:15:57;10.27;;;5.13;;
55931;SDS011;41837;55.700;37.984;2022-12-18T08:18:24;13.50;;;6.65;;
55931;SDS011;41837;55.700;37.984;2022-12-18T08:20:51;11.63;;;5.70;;
55931;SDS011;41837;55.700;37.984;2022-12-18T08:23:17;11.30;;;6.15;;
55931;SDS011;41837;55.700;37.984;2022-12-18T08:25:43;12.23;;;6.28;;
55931;SDS011;41837;55.700;37.984;2022-12-18T08:28:14;11.80;;;5.95;;
55931;SDS011;41837;55.700;37.984;2022-12-18T08:30:40;13.70;;;5.93;;
55931;SDS011;41837;55.700;37.984;2022-12-18T08:33:06;13.68;;;6.13;;
55931;SDS011;41837;55.700;37.984;2022-12-18T08:35:34;14.52;;;6.78;;
55931;SDS011;41837;55.700;37.984;2022-12-18T08:38:02;12.15;;;5.97;;
55931;SDS011;41837;55.700;37.984;2022-12-18T08:40:29;14.88;;;7.25;;
55931;SDS011;41837;55.700;37.984;2022-12-18T08:42:56;11.05;;;6.18;;
55931;SDS011;41837;55.700;37.984;2022-12-18T08:45:41;8.50;;;5.03;;
55931;SDS011;41837;55.700;37.984;2022-12-18T08:48:07;14.50;;;6.20;;
55931;SDS011;41837;55.700;37.984;2022-12-18T08:50:33;12.60;;;6.10;;
55931;SDS011;41837;55.700;37.984;2022-12-18T08:52:59;12.25;;;6.93;;
55931;SDS011;41837;55.700;37.984;2022-12-18T08:55:27;11.77;;;6.03;;
55931;SDS011;41837;55.700;37.984;2022-12-18T08:57:53;12.55;;;6.10;;
55931;SDS011;41837;55.700;37.984;2022-12-18T09:00:20;13.88;;;6.97;;
55931;SDS011;41837;55.700;37.984;2022-12-18T09:02:46;10.80;;;5.30;;
55931;SDS011;41837;55.700;37.984;2022-12-18T09:05:12;10.02;;;4.05;;
55931;SDS011;41837;55.700;37.984;2022-12-18T09:07:39;18.02;;;6.68;;
55931;SDS011;41837;55.700;37.984;2022-12-18T09:10:05;13.57;;;7.15;;
55931;SDS011;41837;55.700;37.984;2022-12-18T09:12:32;11.10;;;6.43;;
55931;SDS011;41837;55.700;37.984;2022-12-18T09:14:57;11.90;;;6.88;;
55931;SDS011;41837;55.700;37.984;2022-12-18T09:17:24;14.18;;;7.03;;
55931;SDS011;41837;55.700;37.984;2022-12-18T09:19:50;16.65;;;6.53;;
55931;SDS011;41837;55.700;37.984;2022-12-18T09:22:16;11.77;;;6.22;;
55931;SDS011;41837;55.700;37.984;2022-12-18T09:24:43;7.15;;;4.03;;
55931;SDS011;41837;55.700;37.984;2022-12-18T09:27:09;10.52;;;6.00;;
55931;SDS011;41837;55.700;37.984;2022-12-18T09:29:35;13.13;;;6.55;;
55931;SDS011;41837;55.700;37.984;2022-12-18T09:32:01;12.07;;;6.25;;
55931;SDS011;41837;55.700;37.984;2022-12-18T09:34:27;10.45;;;5.60;;
55931;SDS011;41837;55.700;37.984;2022-12-18T09:36:53;11.30;;;6.18;;
55931;SDS011;41837;55.700;37.984;2022-12-18T09:39:20;12.50;;;5.10;;
55931;SDS011;41837;55.700;37.984;2022-12-18T09:41:53;12.27;;;6.53;;
55931;SDS011;41837;55.700;37.984;2022-12-18T09:44:26;12.80;;;6.97;;
55931;SDS011;41837;55.700;37.984;2022-12-18T09:47:04;10.10;;;4.75;;
55931;SDS011;41837;55.700;37.984;2022-12-18T09:49:50;11.10;;;5.07;;
55931;SDS011;41837;55.700;37.984;2022-12-18T09:55:00;10.77;;;5.70;;
55931;SDS011;41837;55.700;37.984;2022-12-18T09:57:37;13.82;;;6.22;;
55931;SDS011;41837;55.700;37.984;2022-12-18T10:00:14;12.05;;;5.97;;
55931;SDS011;41837;55.700;37.984;2022-12-18T10:02:46;13.80;;;6.65;;
55931;SDS011;41837;55.700;37.984;2022-12-18T10:05:14;12.30;;;6.63;;
55931;SDS011;41837;55.700;37.984;2022-12-18T10:07:45;11.45;;;6.35;;
55931;SDS011;41837;55.700;37.984;2022-12-18T10:10:47;10.10;;;4.93;;
55931;SDS011;41837;55.700;37.984;2022-12-18T10:16:23;11.48;;;5.35;;
55931;SDS011;41837;55.700;37.984;2022-12-18T10:27:08;6.20;;;3.85;;
55931;SDS011;41837;55.700;37.984;2022-12-18T10:29:48;9.30;;;4.80;;
55931;SDS011;41837;55.700;37.984;2022-12-18T10:32:19;11.07;;;4.90;;
55931;SDS011;41837;55.700;37.984;2022-12-18T10:34:52;6.22;;;3.65;;
55931;SDS011;41837;55.700;37.984;2022-12-18T10:37:21;8.57;;;4.20;;
55931;SDS011;41837;55.700;37.984;2022-12-18T10:42:38;11.05;;;5.30;;
55931;SDS011;41837;55.700;37.984;2022-12-18T10:45:09;11.43;;;5.35;;
55931;SDS011;41837;55.700;37.984;2022-12-18T10:47:46;9.30;;;4.32;;
55931;SDS011;41837;55.700;37.984;2022-12-18T10:50:33;9.52;;;5.32;;
55931;SDS011;41837;55.700;37.984;2022-12-18T10:53:02;8.60;;;4.75;;
55931;SDS011;41837;55.700;37.984;2022-12-18T10:55:34;6.53;;;3.28;;
55931;SDS011;41837;55.700;37.984;2022-12-18T10:58:16;9.60;;;4.20;;
55931;SDS011;41837;55.700;37.984;2022-12-18T11:01:08;10.00;;;5.00;;
55931;SDS011;41837;55.700;37.984;2022-12-18T11:03:43;11.93;;;5.78;;
55931;SDS011;41837;55.700;37.984;2022-12-18T11:06:12;16.30;;;4.18;;
55931;SDS011;41837;55.700;37.984;2022-12-18T11:08:43;9.63;;;5.20;;
55931;SDS011;41837;55.700;37.984;2022-12-18T11:11:22;8.93;;;3.85;;
55931;SDS011;41837;55.700;37.984;2022-12-18T11:16:42;11.23;;;4.85;;
55931;SDS011;41837;55.700;37.984;2022-12-18T11:22:17;7.38;;;3.10;;
55931;SDS011;41837;55.700;37.984;2022-12-18T11:27:46;8.60;;;3.80;;
55931;SDS011;41837;55.700;37.984;2022-12-18T11:30:21;9.40;;;4.35;;
55931;SDS011;41837;55.700;37.984;2022-12-18T11:35:45;7.40;;;4.38;;
55931;SDS011;41837;55.700;37.984;2022-12-18T11:38:21;8.57;;;4.30;;
55931;SDS011;41837;55.700;37.984;2022-12-18T11:40:51;10.30;;;4.45;;
55931;SDS011;41837;55.700;37.984;2022-12-18T11:43:27;10.57;;;5.13;;
55931;SDS011;41837;55.700;37.984;2022-12-18T11:46:12;12.00;;;4.15;;
55931;SDS011;41837;55.700;37.984;2022-12-18T11:50:01;10.65;;;4.22;;
55931;SDS011;41837;55.700;37.984;2022-12-18T11:52:37;11.23;;;5.35;;
55931;SDS011;41837;55.700;37.984;2022-12-18T11:55:10;11.25;;;5.30;;
55931;SDS011;41837;55.700;37.984;2022-12-18T12:05:45;9.15;;;4.88;;
55931;SDS011;41837;55.700;37.984;2022-12-18T12:18:00;11.50;;;4.68;;
55931;SDS011;41837;55.700;37.984;2022-12-18T12:26:19;8.63;;;4.00;;
55931;SDS011;41837;55.700;37.984;2022-12-18T12:29:01;10.38;;;4.78;;
55931;SDS011;41837;55.700;37.984;2022-12-18T12:31:48;10.38;;;4.75;;
55931;SDS011;41837;55.700;37.984;2022-12-18T12:34:25;10.80;;;4.57;;
55931;SDS011;41837;55.700;37.984;2022-12-18T12:39:42;11.05;;;4.47;;
55931;SDS011;41837;55.700;37.984;2022-12-18T12:42:18;9.43;;;4.28;;
55931;SDS011;41837;55.700;37.984;2022-12-18T12:45:25;17.83;;;6.97;;
55931;SDS011;41837;55.700;37.984;2022-12-18T12:47:56;11.75;;;5.30;;
55931;SDS011;41837;55.700;37.984;2022-12-18T12:50:25;12.02;;;6.32;;
55931;SDS011;41837;55.700;37.984;2022-12-18T12:52:53;10.25;;;4.32;;
55931;SDS011;41837;55.700;37.984;2022-12-18T12:55:22;11.13;;;4.75;;
55931;SDS011;41837;55.700;37.984;2022-12-18T13:00:41;8.95;;;4.03;;
55931;SDS011;41837;55.700;37.984;2022-12-18T13:08:57;10.73;;;4.00;;
55931;SDS011;41837;55.700;37.984;2022-12-18T13:11:29;11.52;;;5.30;;
55931;SDS011;41837;55.700;37.984;2022-12-18T13:14:26;9.90;;;3.65;;
55931;SDS011;41837;55.700;37.984;2022-12-18T13:19:50;11.75;;;4.20;;
55931;SDS011;41837;55.700;37.984;2022-12-18T13:22:22;10.82;;;5.05;;
55931;SDS011;41837;55.700;37.984;2022-12-18T13:24:54;10.35;;;5.70;;
55931;SDS011;41837;55.700;37.984;2022-12-18T13:36:02;8.55;;;3.83;;
55931;SDS011;41837;55.700;37.984;2022-12-18T13:38:47;8.75;;;3.97;;
55931;SDS011;41837;55.700;37.984;2022-12-18T13:41:43;7.90;;;4.38;;
55931;SDS011;41837;55.700;37.984;2022-12-18T13:46:47;8.18;;;4.03;;
55931;SDS011;41837;55.700;37.984;2022-12-18T13:49:20;11.27;;;5.30;;
55931;SDS011;41837;55.700;37.984;2022-12-18T13:52:13;10.77;;;4.82;;
55931;SDS011;41837;55.700;37.984;2022-12-18T13:54:53;9.98;;;5.15;;
55931;SDS011;41837;55.700;37.984;2022-12-18T13:57:32;16.10;;;4.50;;
55931;SDS011;41837;55.700;37.984;2022-12-18T14:02:49;9.82;;;4.57;;
55931;SDS011;41837;55.700;37.984;2022-12-18T14:07:54;8.05;;;4.03;;
55931;SDS011;41837;55.700;37.984;2022-12-18T14:10:25;12.52;;;4.78;;
55931;SDS011;41837;55.700;37.984;2022-12-18T14:12:52;9.02;;;4.80;;
55931;SDS011;41837;55.700;37.984;2022-12-18T14:15:45;11.23;;;5.07;;
55931;SDS011;41837;55.700;37.984;2022-12-18T14:20:48;15.10;;;5.60;;
55931;SDS011;41837;55.700;37.984;2022-12-18T14:25:56;12.85;;;5.88;;
55931;SDS011;41837;55.700;37.984;2022-12-18T14:28:23;17.70;;;6.40;;
55931;SDS011;41837;55.700;37.984;2022-12-18T14:30:50;18.25;;;6.60;;
55931;SDS011;41837;55.700;37.984;2022-12-18T14:33:17;18.35;;;7.45;;
55931;SDS011;41837;55.700;37.984;2022-12-18T14:35:56;18.63;;;7.38;;
55931;SDS011;41837;55.700;37.984;2022-12-18T14:41:10;25.88;;;8.73;;
55931;SDS011;41837;55.700;37.984;2022-12-18T14:43:45;22.53;;;8.33;;
55931;SDS011;41837;55.700;37.984;2022-12-18T14:49:04;18.95;;;6.82;;
55931;SDS011;41837;55.700;37.984;2022-12-18T14:51:49;24.80;;;9.73;;
55931;SDS011;41837;55.700;37.984;2022-12-18T14:54:18;26.75;;;8.63;;
55931;SDS011;41837;55.700;37.984;2022-12-18T14:56:47;29.17;;;10.90;;
55931;SDS011;41837;55.700;37.984;2022-12-18T14:59:19;23.98;;;10.25;;
55931;SDS011;41837;55.700;37.984;2022-12-18T15:07:06;25.02;;;9.82;;
55931;SDS011;41837;55.700;37.984;2022-12-18T15:09:34;22.45;;;8.65;;
55931;SDS011;41837;55.700;37.984;2022-12-18T15:12:01;21.40;;;9.25;;
55931;SDS011;41837;55.700;37.984;2022-12-18T15:17:18;21.25;;;8.82;;
55931;SDS011;41837;55.700;37.984;2022-12-18T15:19:48;20.10;;;8.55;;
55931;SDS011;41837;55.700;37.984;2022-12-18T15:22:20;24.05;;;8.45;;
55931;SDS011;41837;55.700;37.984;2022-12-18T15:24:55;19.48;;;7.75;;
55931;SDS011;41837;55.700;37.984;2022-12-18T15:27:31;18.00;;;7.82;;
55931;SDS011;41837;55.700;37.984;2022-12-18T15:32:37;19.05;;;6.80;;
55931;SDS011;41837;55.700;37.984;2022-12-18T15:37:37;14.60;;;5.25;;
55931;SDS011;41837;55.700;37.984;2022-12-18T15:40:05;15.98;;;6.50;;
55931;SDS011;41837;55.700;37.984;2022-12-18T15:42:32;14.88;;;6.13;;
55931;SDS011;41837;55.700;37.984;2022-12-18T15:45:18;15.90;;;6.10;;
55931;SDS011;41837;55.700;37.984;2022-12-18T15:47:44;12.10;;;5.72;;
55931;SDS011;41837;55.700;37.984;2022-12-18T15:50:11;10.20;;;5.07;;
55931;SDS011;41837;55.700;37.984;2022-12-18T15:52:43;11.50;;;4.82;;
55931;SDS011;41837;55.700;37.984;2022-12-18T15:55:13;13.00;;;5.55;;
55931;SDS011;41837;55.700;37.984;2022-12-18T15:57:59;10.52;;;5.18;;
55931;SDS011;41837;55.700;37.984;2022-12-18T16:00:25;12.88;;;5.82;;
55931;SDS011;41837;55.700;37.984;2022-12-18T16:02:53;9.85;;;5.70;;
55931;SDS011;41837;55.700;37.984;2022-12-18T16:05:19;10.75;;;5.43;;
55931;SDS011;41837;55.700;37.984;2022-12-18T16:07:47;13.75;;;6.50;;
55931;SDS011;41837;55.700;37.984;2022-12-18T16:10:13;10.50;;;4.95;;
55931;SDS011;41837;55.700;37.984;2022-12-18T16:12:40;10.45;;;5.70;;
55931;SDS011;41837;55.700;37.984;2022-12-18T16:15:07;10.00;;;4.25;;
55931;SDS011;41837;55.700;37.984;2022-12-18T16:17:37;12.35;;;5.65;;
55931;SDS011;41837;55.700;37.984;2022-12-18T16:20:04;11.02;;;5.20;;
55931;SDS011;41837;55.700;37.984;2022-12-18T16:22:44;10.55;;;5.30;;
55931;SDS011;41837;55.700;37.984;2022-12-18T16:27:50;11.05;;;5.28;;
55931;SDS011;41837;55.700;37.984;2022-12-18T16:30:22;9.45;;;5.03;;
55931;SDS011;41837;55.700;37.984;2022-12-18T16:32:53;12.90;;;5.90;;
55931;SDS011;41837;55.700;37.984;2022-12-18T16:35:22;10.88;;;5.75;;
55931;SDS011;41837;55.700;37.984;2022-12-18T16:37:49;11.18;;;5.70;;
55931;SDS011;41837;55.700;37.984;2022-12-18T16:40:17;13.80;;;6.10;;
55931;SDS011;41837;55.700;37.984;2022-12-18T16:42:44;10.88;;;4.78;;
55931;SDS011;41837;55.700;37.984;2022-12-18T16:45:13;10.25;;;5.70;;
55931;SDS011;41837;55.700;37.984;2022-12-18T16:47:41;10.38;;;5.50;;
55931;SDS011;41837;55.700;37.984;2022-12-18T16:50:08;12.35;;;5.80;;
55931;SDS011;41837;55.700;37.984;2022-12-18T16:52:34;8.55;;;4.45;;
55931;SDS011;41837;55.700;37.984;2022-12-18T16:55:01;9.70;;;5.35;;